sensor_id;sensor_type;location;lat;lon;timestamp;temperature;humidity
51615;DHT22;37695;52.960;6.188;2023-03-14T00:00:22;9.90;99.90
51615;DHT22;37695;52.960;6.188;2023-03-14T00:02:52;9.90;99.90
51615;DHT22;37695;52.960;6.188;2023-03-14T00:05:18;9.90;99.90
51615;DHT22;37695;52.960;6.188;2023-03-14T00:07:44;9.90;99.90
51615;DHT22;37695;52.960;6.188;2023-03-14T00:10:12;10.00;99.90
51615;DHT22;37695;52.960;6.188;2023-03-14T00:12:39;10.00;99.90
51615;DHT22;37695;52.960;6.188;2023-03-14T00:15:05;10.00;99.90
51615;DHT22;37695;52.960;6.188;2023-03-14T00:17:32;9.90;99.90
51615;DHT22;37695;52.960;6.188;2023-03-14T00:19:58;10.00;99.90
51615;DHT22;37695;52.960;6.188;2023-03-14T00:22:30;9.90;99.90
51615;DHT22;37695;52.960;6.188;2023-03-14T00:24:56;9.90;99.90
51615;DHT22;37695;52.960;6.188;2023-03-14T00:27:21;9.90;99.90
51615;DHT22;37695;52.960;6.188;2023-03-14T00:29:47;9.90;99.90
51615;DHT22;37695;52.960;6.188;2023-03-14T00:32:12;10.00;99.90
51615;DHT22;37695;52.960;6.188;2023-03-14T00:34:38;10.10;99.90
51615;DHT22;37695;52.960;6.188;2023-03-14T00:37:05;10.20;99.90
51615;DHT22;37695;52.960;6.188;2023-03-14T00:39:31;10.20;99.90
51615;DHT22;37695;52.960;6.188;2023-03-14T00:41:56;10.30;99.90
51615;DHT22;37695;52.960;6.188;2023-03-14T00:44:22;10.40;99.90
51615;DHT22;37695;52.960;6.188;2023-03-14T00:46:47;10.40;99.90
51615;DHT22;37695;52.960;6.188;2023-03-14T00:49:13;10.40;99.90
51615;DHT22;37695;52.960;6.188;2023-03-14T00:51:38;10.40;99.90
51615;DHT22;37695;52.960;6.188;2023-03-14T00:54:04;10.40;99.90
51615;DHT22;37695;52.960;6.188;2023-03-14T00:56:30;10.30;99.90
51615;DHT22;37695;52.960;6.188;2023-03-14T00:58:56;10.30;99.90
51615;DHT22;37695;52.960;6.188;2023-03-14T01:01:22;10.30;99.90
51615;DHT22;37695;52.960;6.188;2023-03-14T01:03:51;10.30;99.90
51615;DHT22;37695;52.960;6.188;2023-03-14T01:06:20;10.30;99.90
51615;DHT22;37695;52.960;6.188;2023-03-14T01:08:47;10.30;99.90
51615;DHT22;37695;52.960;6.188;2023-03-14T01:11:16;10.40;99.90
51615;DHT22;37695;52.960;6.188;2023-03-14T01:13:42;10.40;99.90
51615;DHT22;37695;52.960;6.188;2023-03-14T01:16:10;10.50;99.90
51615;DHT22;37695;52.960;6.188;2023-03-14T01:18:36;10.60;99.90
51615;DHT22;37695;52.960;6.188;2023-03-14T01:21:03;10.60;99.90
51615;DHT22;37695;52.960;6.188;2023-03-14T01:23:29;10.60;99.90
51615;DHT22;37695;52.960;6.188;2023-03-14T01:25:55;10.60;99.90
51615;DHT22;37695;52.960;6.188;2023-03-14T01:28:20;10.60;99.90
51615;DHT22;37695;52.960;6.188;2023-03-14T01:30:46;10.60;99.90
51615;DHT22;37695;52.960;6.188;2023-03-14T01:33:11;10.60;99.90
51615;DHT22;37695;52.960;6.188;2023-03-14T01:35:39;10.50;99.90
51615;DHT22;37695;52.960;6.188;2023-03-14T01:38:05;10.50;99.90
51615;DHT22;37695;52.960;6.188;2023-03-14T01:40:30;10.50;99.90
51615;DHT22;37695;52.960;6.188;2023-03-14T01:42:57;10.50;99.90
51615;DHT22;37695;52.960;6.188;2023-03-14T01:48:28;10.50;99.90
51615;DHT22;37695;52.960;6.188;2023-03-14T01:50:56;10.50;99.90
51615;DHT22;37695;52.960;6.188;2023-03-14T01:53:22;10.50;99.90
51615;DHT22;37695;52.960;6.188;2023-03-14T01:55:48;10.50;99.90
51615;DHT22;37695;52.960;6.188;2023-03-14T01:58:16;10.50;99.90
51615;DHT22;37695;52.960;6.188;2023-03-14T02:00:42;10.40;99.90
51615;DHT22;37695;52.960;6.188;2023-03-14T02:03:15;10.40;99.90
51615;DHT22;37695;52.960;6.188;2023-03-14T02:05:42;10.40;99.90
51615;DHT22;37695;52.960;6.188;2023-03-14T02:08:14;10.60;99.90
51615;DHT22;37695;52.960;6.188;2023-03-14T02:10:46;10.30;99.90
51615;DHT22;37695;52.960;6.188;2023-03-14T02:13:13;10.30;99.90
51615;DHT22;37695;52.960;6.188;2023-03-14T02:15:39;10.30;99.90
51615;DHT22;37695;52.960;6.188;2023-03-14T02:18:05;10.30;99.90
51615;DHT22;37695;52.960;6.188;2023-03-14T02:20:42;10.30;99.90
51615;DHT22;37695;52.960;6.188;2023-03-14T02:23:10;10.30;99.90
51615;DHT22;37695;52.960;6.188;2023-03-14T02:26:13;10.20;99.90
51615;DHT22;37695;52.960;6.188;2023-03-14T02:28:40;10.20;99.90
51615;DHT22;37695;52.960;6.188;2023-03-14T02:31:05;10.20;99.90
51615;DHT22;37695;52.960;6.188;2023-03-14T02:33:31;10.20;99.90
51615;DHT22;37695;52.960;6.188;2023-03-14T02:35:59;10.20;99.90
51615;DHT22;37695;52.960;6.188;2023-03-14T02:40:56;10.20;99.90
51615;DHT22;37695;52.960;6.188;2023-03-14T02:43:22;10.20;99.90
51615;DHT22;37695;52.960;6.188;2023-03-14T02:45:48;10.20;99.90
51615;DHT22;37695;52.960;6.188;2023-03-14T02:50:47;10.10;99.90
51615;DHT22;37695;52.960;6.188;2023-03-14T02:53:19;10.10;99.90
51615;DHT22;37695;52.960;6.188;2023-03-14T02:55:49;10.10;99.90
51615;DHT22;37695;52.960;6.188;2023-03-14T02:58:16;10.00;99.90
51615;DHT22;37695;52.960;6.188;2023-03-14T03:00:42;10.00;99.90
51615;DHT22;37695;52.960;6.188;2023-03-14T03:03:07;10.00;99.90
51615;DHT22;37695;52.960;6.188;2023-03-14T03:05:33;10.00;99.90
51615;DHT22;37695;52.960;6.188;2023-03-14T03:07:59;9.90;99.90
51615;DHT22;37695;52.960;6.188;2023-03-14T03:10:24;9.90;99.90
51615;DHT22;37695;52.960;6.188;2023-03-14T03:12:50;9.80;99.90
51615;DHT22;37695;52.960;6.188;2023-03-14T03:15:16;9.80;99.90
51615;DHT22;37695;52.960;6.188;2023-03-14T03:17:42;9.70;99.90
51615;DHT22;37695;52.960;6.188;2023-03-14T03:20:08;9.60;99.90
51615;DHT22;37695;52.960;6.188;2023-03-14T03:22:35;9.50;99.90
51615;DHT22;37695;52.960;6.188;2023-03-14T03:25:05;9.50;99.90
51615;DHT22;37695;52.960;6.188;2023-03-14T03:27:33;9.50;99.90
51615;DHT22;37695;52.960;6.188;2023-03-14T03:29:59;9.50;99.90
51615;DHT22;37695;52.960;6.188;2023-03-14T03:32:25;9.50;99.90
51615;DHT22;37695;52.960;6.188;2023-03-14T03:34:51;9.50;99.90
51615;DHT22;37695;52.960;6.188;2023-03-14T03:37:17;9.40;99.90
51615;DHT22;37695;52.960;6.188;2023-03-14T03:39:43;9.50;99.90
51615;DHT22;37695;52.960;6.188;2023-03-14T03:42:09;9.40;99.90
51615;DHT22;37695;52.960;6.188;2023-03-14T03:44:35;9.40;99.90
51615;DHT22;37695;52.960;6.188;2023-03-14T03:47:00;9.40;99.90
51615;DHT22;37695;52.960;6.188;2023-03-14T03:49:32;9.40;99.90
51615;DHT22;37695;52.960;6.188;2023-03-14T03:51:58;9.30;99.90
51615;DHT22;37695;52.960;6.188;2023-03-14T03:54:24;9.40;99.90
51615;DHT22;37695;52.960;6.188;2023-03-14T03:56:50;9.30;99.90
51615;DHT22;37695;52.960;6.188;2023-03-14T03:59:16;9.30;99.90
51615;DHT22;37695;52.960;6.188;2023-03-14T04:01:41;9.30;99.90
51615;DHT22;37695;52.960;6.188;2023-03-14T04:04:07;9.30;99.90
51615;DHT22;37695;52.960;6.188;2023-03-14T04:06:32;9.30;99.90
51615;DHT22;37695;52.960;6.188;2023-03-14T04:08:58;9.30;99.90
51615;DHT22;37695;52.960;6.188;2023-03-14T04:11:24;9.30;99.90
51615;DHT22;37695;52.960;6.188;2023-03-14T04:13:49;9.30;99.90
51615;DHT22;37695;52.960;6.188;2023-03-14T04:16:18;9.30;99.90
51615;DHT22;37695;52.960;6.188;2023-03-14T04:18:44;9.30;99.90
51615;DHT22;37695;52.960;6.188;2023-03-14T04:21:10;9.30;99.90
51615;DHT22;37695;52.960;6.188;2023-03-14T04:23:35;9.30;99.90
51615;DHT22;37695;52.960;6.188;2023-03-14T04:26:02;9.30;99.90
51615;DHT22;37695;52.960;6.188;2023-03-14T04:28:27;9.30;99.90
51615;DHT22;37695;52.960;6.188;2023-03-14T04:30:53;9.30;99.90
51615;DHT22;37695;52.960;6.188;2023-03-14T04:33:18;9.30;99.90
51615;DHT22;37695;52.960;6.188;2023-03-14T04:35:44;9.30;99.90
51615;DHT22;37695;52.960;6.188;2023-03-14T04:38:11;9.30;99.90
51615;DHT22;37695;52.960;6.188;2023-03-14T04:40:38;9.30;99.90
51615;DHT22;37695;52.960;6.188;2023-03-14T04:43:04;9.30;99.90
51615;DHT22;37695;52.960;6.188;2023-03-14T04:45:29;9.30;99.90
51615;DHT22;37695;52.960;6.188;2023-03-14T04:47:55;9.30;99.90
51615;DHT22;37695;52.960;6.188;2023-03-14T04:50:20;9.20;99.90
51615;DHT22;37695;52.960;6.188;2023-03-14T04:52:46;9.20;99.90
51615;DHT22;37695;52.960;6.188;2023-03-14T04:55:11;9.20;99.90
51615;DHT22;37695;52.960;6.188;2023-03-14T04:57:37;9.20;99.90
51615;DHT22;37695;52.960;6.188;2023-03-14T05:00:04;9.30;99.90
51615;DHT22;37695;52.960;6.188;2023-03-14T05:02:33;9.20;99.90
51615;DHT22;37695;52.960;6.188;2023-03-14T05:04:59;9.30;99.90
51615;DHT22;37695;52.960;6.188;2023-03-14T05:07:25;9.20;99.90
51615;DHT22;37695;52.960;6.188;2023-03-14T05:09:50;9.20;99.90
51615;DHT22;37695;52.960;6.188;2023-03-14T05:12:16;9.20;99.90
51615;DHT22;37695;52.960;6.188;2023-03-14T05:14:41;9.20;99.90
51615;DHT22;37695;52.960;6.188;2023-03-14T05:17:07;9.30;99.90
51615;DHT22;37695;52.960;6.188;2023-03-14T05:19:32;9.20;99.90
51615;DHT22;37695;52.960;6.188;2023-03-14T05:21:58;9.20;99.90
51615;DHT22;37695;52.960;6.188;2023-03-14T05:24:23;9.20;99.90
51615;DHT22;37695;52.960;6.188;2023-03-14T05:26:49;9.20;99.90
51615;DHT22;37695;52.960;6.188;2023-03-14T05:29:14;9.20;99.90
51615;DHT22;37695;52.960;6.188;2023-03-14T05:31:40;9.20;99.90
51615;DHT22;37695;52.960;6.188;2023-03-14T05:34:05;9.20;99.90
51615;DHT22;37695;52.960;6.188;2023-03-14T05:36:31;9.20;99.90
51615;DHT22;37695;52.960;6.188;2023-03-14T05:38:57;9.20;99.90
51615;DHT22;37695;52.960;6.188;2023-03-14T05:41:22;9.10;99.90
51615;DHT22;37695;52.960;6.188;2023-03-14T05:43:48;9.10;99.90
51615;DHT22;37695;52.960;6.188;2023-03-14T05:46:13;9.10;99.90
51615;DHT22;37695;52.960;6.188;2023-03-14T05:48:39;9.10;99.90
51615;DHT22;37695;52.960;6.188;2023-03-14T05:51:05;9.10;99.90
51615;DHT22;37695;52.960;6.188;2023-03-14T05:53:30;9.10;99.90
51615;DHT22;37695;52.960;6.188;2023-03-14T05:55:56;9.10;99.90
51615;DHT22;37695;52.960;6.188;2023-03-14T05:58:22;9.10;99.90
51615;DHT22;37695;52.960;6.188;2023-03-14T06:00:48;9.20;99.90
51615;DHT22;37695;52.960;6.188;2023-03-14T06:03:13;9.20;99.90
51615;DHT22;37695;52.960;6.188;2023-03-14T06:05:39;9.20;99.90
51615;DHT22;37695;52.960;6.188;2023-03-14T06:08:05;9.20;99.90
51615;DHT22;37695;52.960;6.188;2023-03-14T06:10:30;9.20;99.90
51615;DHT22;37695;52.960;6.188;2023-03-14T06:12:56;9.20;99.90
51615;DHT22;37695;52.960;6.188;2023-03-14T06:15:21;9.20;99.90
51615;DHT22;37695;52.960;6.188;2023-03-14T06:17:47;9.20;99.90
51615;DHT22;37695;52.960;6.188;2023-03-14T06:20:13;9.20;99.90
51615;DHT22;37695;52.960;6.188;2023-03-14T06:22:38;9.20;99.90
51615;DHT22;37695;52.960;6.188;2023-03-14T06:25:06;9.20;99.90
51615;DHT22;37695;52.960;6.188;2023-03-14T06:27:32;9.20;99.90
51615;DHT22;37695;52.960;6.188;2023-03-14T06:29:58;9.20;99.90
51615;DHT22;37695;52.960;6.188;2023-03-14T06:32:23;9.10;99.90
51615;DHT22;37695;52.960;6.188;2023-03-14T06:34:49;9.10;99.90
51615;DHT22;37695;52.960;6.188;2023-03-14T06:37:15;9.10;99.90
51615;DHT22;37695;52.960;6.188;2023-03-14T06:39:41;9.00;99.90
51615;DHT22;37695;52.960;6.188;2023-03-14T06:42:06;8.90;99.90
51615;DHT22;37695;52.960;6.188;2023-03-14T06:44:32;8.80;99.90
51615;DHT22;37695;52.960;6.188;2023-03-14T06:46:57;8.70;99.90
51615;DHT22;37695;52.960;6.188;2023-03-14T06:49:23;8.70;99.90
51615;DHT22;37695;52.960;6.188;2023-03-14T06:51:48;8.40;99.90
51615;DHT22;37695;52.960;6.188;2023-03-14T06:54:14;8.20;99.90
51615;DHT22;37695;52.960;6.188;2023-03-14T06:56:40;7.90;99.90
51615;DHT22;37695;52.960;6.188;2023-03-14T06:59:06;7.70;99.90
51615;DHT22;37695;52.960;6.188;2023-03-14T07:01:32;7.50;99.90
51615;DHT22;37695;52.960;6.188;2023-03-14T07:03:58;7.40;99.90
51615;DHT22;37695;52.960;6.188;2023-03-14T07:06:24;7.30;99.90
51615;DHT22;37695;52.960;6.188;2023-03-14T07:08:50;7.20;99.90
51615;DHT22;37695;52.960;6.188;2023-03-14T07:11:16;7.10;99.90
51615;DHT22;37695;52.960;6.188;2023-03-14T07:13:42;6.90;99.90
51615;DHT22;37695;52.960;6.188;2023-03-14T07:16:08;6.80;99.90
51615;DHT22;37695;52.960;6.188;2023-03-14T07:18:34;6.70;99.90
51615;DHT22;37695;52.960;6.188;2023-03-14T07:20:59;6.60;99.90
51615;DHT22;37695;52.960;6.188;2023-03-14T07:23:25;6.40;99.90
51615;DHT22;37695;52.960;6.188;2023-03-14T07:25:50;6.30;99.90
51615;DHT22;37695;52.960;6.188;2023-03-14T07:28:17;6.10;99.90
51615;DHT22;37695;52.960;6.188;2023-03-14T07:30:42;6.00;99.90
51615;DHT22;37695;52.960;6.188;2023-03-14T07:33:08;5.90;99.90
51615;DHT22;37695;52.960;6.188;2023-03-14T07:35:33;5.80;99.90
51615;DHT22;37695;52.960;6.188;2023-03-14T07:37:59;5.70;99.90
51615;DHT22;37695;52.960;6.188;2023-03-14T07:40:24;5.70;99.90
51615;DHT22;37695;52.960;6.188;2023-03-14T07:42:50;5.70;99.90
51615;DHT22;37695;52.960;6.188;2023-03-14T07:45:16;5.70;99.90
51615;DHT22;37695;52.960;6.188;2023-03-14T07:47:41;5.70;99.90
51615;DHT22;37695;52.960;6.188;2023-03-14T07:50:07;5.70;99.90
51615;DHT22;37695;52.960;6.188;2023-03-14T07:52:33;5.80;99.90
51615;DHT22;37695;52.960;6.188;2023-03-14T07:54:59;5.80;99.90
51615;DHT22;37695;52.960;6.188;2023-03-14T07:57:24;5.80;99.90
51615;DHT22;37695;52.960;6.188;2023-03-14T07:59:50;5.80;99.90
51615;DHT22;37695;52.960;6.188;2023-03-14T08:02:16;5.80;99.90
51615;DHT22;37695;52.960;6.188;2023-03-14T08:04:43;5.80;99.90
51615;DHT22;37695;52.960;6.188;2023-03-14T08:07:08;5.80;99.90
51615;DHT22;37695;52.960;6.188;2023-03-14T08:09:34;5.80;99.90
51615;DHT22;37695;52.960;6.188;2023-03-14T08:12:00;5.90;99.90
51615;DHT22;37695;52.960;6.188;2023-03-14T08:14:25;6.00;99.90
51615;DHT22;37695;52.960;6.188;2023-03-14T08:16:51;6.00;99.90
51615;DHT22;37695;52.960;6.188;2023-03-14T08:19:17;6.10;99.90
51615;DHT22;37695;52.960;6.188;2023-03-14T08:21:43;6.10;99.90
51615;DHT22;37695;52.960;6.188;2023-03-14T08:24:08;6.20;99.90
51615;DHT22;37695;52.960;6.188;2023-03-14T08:26:34;6.20;99.90
51615;DHT22;37695;52.960;6.188;2023-03-14T08:28:59;6.30;99.90
51615;DHT22;37695;52.960;6.188;2023-03-14T08:31:25;6.40;99.90
51615;DHT22;37695;52.960;6.188;2023-03-14T08:33:50;6.40;99.90
51615;DHT22;37695;52.960;6.188;2023-03-14T08:36:18;6.40;99.90
51615;DHT22;37695;52.960;6.188;2023-03-14T08:38:44;6.40;99.90
51615;DHT22;37695;52.960;6.188;2023-03-14T08:41:09;6.40;99.90
51615;DHT22;37695;52.960;6.188;2023-03-14T08:43:35;6.50;99.90
51615;DHT22;37695;52.960;6.188;2023-03-14T08:46:02;6.50;99.90
51615;DHT22;37695;52.960;6.188;2023-03-14T08:48:28;6.50;99.90
51615;DHT22;37695;52.960;6.188;2023-03-14T08:50:56;6.60;99.90
51615;DHT22;37695;52.960;6.188;2023-03-14T08:53:22;6.60;99.90
51615;DHT22;37695;52.960;6.188;2023-03-14T08:55:52;6.60;99.90
51615;DHT22;37695;52.960;6.188;2023-03-14T08:58:18;6.60;99.90
51615;DHT22;37695;52.960;6.188;2023-03-14T09:00:43;6.80;99.90
51615;DHT22;37695;52.960;6.188;2023-03-14T09:03:09;6.80;99.90
51615;DHT22;37695;52.960;6.188;2023-03-14T09:05:35;6.80;99.90
51615;DHT22;37695;52.960;6.188;2023-03-14T09:08:00;6.90;99.90
51615;DHT22;37695;52.960;6.188;2023-03-14T09:10:26;7.00;99.90
51615;DHT22;37695;52.960;6.188;2023-03-14T09:12:52;7.20;99.90
51615;DHT22;37695;52.960;6.188;2023-03-14T09:15:17;7.20;99.90
51615;DHT22;37695;52.960;6.188;2023-03-14T09:17:43;7.30;99.90
51615;DHT22;37695;52.960;6.188;2023-03-14T09:20:10;7.10;99.90
51615;DHT22;37695;52.960;6.188;2023-03-14T09:22:36;7.40;99.90
51615;DHT22;37695;52.960;6.188;2023-03-14T09:25:05;7.50;99.90
51615;DHT22;37695;52.960;6.188;2023-03-14T09:27:31;7.50;99.90
51615;DHT22;37695;52.960;6.188;2023-03-14T09:29:56;7.50;99.90
51615;DHT22;37695;52.960;6.188;2023-03-14T09:32:22;7.40;99.90
51615;DHT22;37695;52.960;6.188;2023-03-14T09:34:47;7.40;99.90
51615;DHT22;37695;52.960;6.188;2023-03-14T09:37:13;7.40;99.90
51615;DHT22;37695;52.960;6.188;2023-03-14T09:39:40;7.50;99.90
51615;DHT22;37695;52.960;6.188;2023-03-14T09:42:08;7.40;99.90
51615;DHT22;37695;52.960;6.188;2023-03-14T09:44:40;7.30;99.90
51615;DHT22;37695;52.960;6.188;2023-03-14T09:47:12;7.20;99.90
51615;DHT22;37695;52.960;6.188;2023-03-14T09:49:40;7.20;99.90
51615;DHT22;37695;52.960;6.188;2023-03-14T09:52:20;7.20;99.90
51615;DHT22;37695;52.960;6.188;2023-03-14T09:57:17;7.40;99.90
51615;DHT22;37695;52.960;6.188;2023-03-14T09:59:45;7.40;99.90
51615;DHT22;37695;52.960;6.188;2023-03-14T10:04:45;7.10;99.90
51615;DHT22;37695;52.960;6.188;2023-03-14T10:07:15;7.30;99.90
51615;DHT22;37695;52.960;6.188;2023-03-14T10:09:43;7.20;99.90
51615;DHT22;37695;52.960;6.188;2023-03-14T10:12:10;7.30;99.90
51615;DHT22;37695;52.960;6.188;2023-03-14T10:14:37;7.20;99.90
51615;DHT22;37695;52.960;6.188;2023-03-14T10:17:11;7.30;99.90
51615;DHT22;37695;52.960;6.188;2023-03-14T10:19:50;7.30;99.90
51615;DHT22;37695;52.960;6.188;2023-03-14T10:22:17;7.40;99.90
51615;DHT22;37695;52.960;6.188;2023-03-14T10:24:46;7.50;99.90
51615;DHT22;37695;52.960;6.188;2023-03-14T10:27:20;7.70;99.90
51615;DHT22;37695;52.960;6.188;2023-03-14T10:29:55;8.00;99.90
51615;DHT22;37695;52.960;6.188;2023-03-14T10:32:22;8.10;99.90
51615;DHT22;37695;52.960;6.188;2023-03-14T10:37:30;7.90;99.90
51615;DHT22;37695;52.960;6.188;2023-03-14T10:40:00;7.80;99.90
51615;DHT22;37695;52.960;6.188;2023-03-14T10:42:32;7.60;99.90
51615;DHT22;37695;52.960;6.188;2023-03-14T10:47:29;7.70;99.90
51615;DHT22;37695;52.960;6.188;2023-03-14T10:49:56;7.80;99.90
51615;DHT22;37695;52.960;6.188;2023-03-14T10:52:25;7.70;99.90
51615;DHT22;37695;52.960;6.188;2023-03-14T10:54:57;7.70;99.90
51615;DHT22;37695;52.960;6.188;2023-03-14T10:57:23;7.80;99.90
51615;DHT22;37695;52.960;6.188;2023-03-14T10:59:49;7.90;99.90
51615;DHT22;37695;52.960;6.188;2023-03-14T11:02:29;7.70;99.90
51615;DHT22;37695;52.960;6.188;2023-03-14T11:05:29;7.50;99.90
51615;DHT22;37695;52.960;6.188;2023-03-14T11:16:27;8.30;99.90
51615;DHT22;37695;52.960;6.188;2023-03-14T11:27:43;8.10;99.90
51615;DHT22;37695;52.960;6.188;2023-03-14T11:30:39;8.10;99.90
51615;DHT22;37695;52.960;6.188;2023-03-14T11:33:16;8.10;99.90
51615;DHT22;37695;52.960;6.188;2023-03-14T11:36:08;8.20;99.90
51615;DHT22;37695;52.960;6.188;2023-03-14T11:38:55;8.20;99.90
51615;DHT22;37695;52.960;6.188;2023-03-14T11:41:36;8.30;99.90
51615;DHT22;37695;52.960;6.188;2023-03-14T11:44:19;8.30;99.90
51615;DHT22;37695;52.960;6.188;2023-03-14T11:46:59;8.20;99.90
51615;DHT22;37695;52.960;6.188;2023-03-14T11:49:48;8.30;99.90
51615;DHT22;37695;52.960;6.188;2023-03-14T11:52:20;8.20;99.80
51615;DHT22;37695;52.960;6.188;2023-03-14T11:54:53;8.30;99.90
51615;DHT22;37695;52.960;6.188;2023-03-14T11:57:22;8.10;99.80
51615;DHT22;37695;52.960;6.188;2023-03-14T12:00:01;8.10;99.90
51615;DHT22;37695;52.960;6.188;2023-03-14T12:02:40;8.10;99.90
51615;DHT22;37695;52.960;6.188;2023-03-14T12:05:22;8.00;99.90
51615;DHT22;37695;52.960;6.188;2023-03-14T12:10:38;8.20;99.90
51615;DHT22;37695;52.960;6.188;2023-03-14T12:13:10;8.30;99.90
51615;DHT22;37695;52.960;6.188;2023-03-14T12:15:39;8.50;99.90
51615;DHT22;37695;52.960;6.188;2023-03-14T12:18:20;8.50;99.90
51615;DHT22;37695;52.960;6.188;2023-03-14T12:20:55;8.50;99.30
51615;DHT22;37695;52.960;6.188;2023-03-14T12:23:21;8.30;99.60
51615;DHT22;37695;52.960;6.188;2023-03-14T12:28:38;8.10;99.90
51615;DHT22;37695;52.960;6.188;2023-03-14T12:39:19;8.10;99.90
51615;DHT22;37695;52.960;6.188;2023-03-14T12:41:52;7.90;99.90
51615;DHT22;37695;52.960;6.188;2023-03-14T12:47:00;7.60;99.90
51615;DHT22;37695;52.960;6.188;2023-03-14T12:49:39;7.50;99.90
51615;DHT22;37695;52.960;6.188;2023-03-14T12:52:14;7.70;99.90
51615;DHT22;37695;52.960;6.188;2023-03-14T12:57:38;7.90;98.90
51615;DHT22;37695;52.960;6.188;2023-03-14T13:00:20;7.70;99.50
51615;DHT22;37695;52.960;6.188;2023-03-14T13:02:49;7.60;99.20
51615;DHT22;37695;52.960;6.188;2023-03-14T13:05:22;7.40;99.90
51615;DHT22;37695;52.960;6.188;2023-03-14T13:10:22;7.30;99.90
51615;DHT22;37695;52.960;6.188;2023-03-14T13:12:54;7.40;98.90
51615;DHT22;37695;52.960;6.188;2023-03-14T13:15:41;7.60;98.40
51615;DHT22;37695;52.960;6.188;2023-03-14T13:18:16;7.70;97.40
51615;DHT22;37695;52.960;6.188;2023-03-14T13:20:46;7.80;98.00
51615;DHT22;37695;52.960;6.188;2023-03-14T13:23:25;8.00;97.10
51615;DHT22;37695;52.960;6.188;2023-03-14T13:25:51;8.00;97.40
51615;DHT22;37695;52.960;6.188;2023-03-14T13:28:18;8.00;97.30
51615;DHT22;37695;52.960;6.188;2023-03-14T13:30:48;7.90;98.30
51615;DHT22;37695;52.960;6.188;2023-03-14T13:33:17;7.90;98.10
51615;DHT22;37695;52.960;6.188;2023-03-14T13:36:04;7.80;98.20
51615;DHT22;37695;52.960;6.188;2023-03-14T13:38:35;7.70;98.10
51615;DHT22;37695;52.960;6.188;2023-03-14T13:41:04;7.80;99.20
51615;DHT22;37695;52.960;6.188;2023-03-14T13:43:33;7.90;99.10
51615;DHT22;37695;52.960;6.188;2023-03-14T13:46:06;8.10;98.60
51615;DHT22;37695;52.960;6.188;2023-03-14T13:48:35;8.00;98.60
51615;DHT22;37695;52.960;6.188;2023-03-14T13:51:05;7.90;98.70
51615;DHT22;37695;52.960;6.188;2023-03-14T13:53:32;7.90;99.00
51615;DHT22;37695;52.960;6.188;2023-03-14T13:56:02;7.90;98.60
51615;DHT22;37695;52.960;6.188;2023-03-14T13:58:30;7.70;96.30
51615;DHT22;37695;52.960;6.188;2023-03-14T14:03:32;7.50;98.10
51615;DHT22;37695;52.960;6.188;2023-03-14T14:05:58;7.40;98.00
51615;DHT22;37695;52.960;6.188;2023-03-14T14:08:25;7.40;98.50
51615;DHT22;37695;52.960;6.188;2023-03-14T14:10:56;7.60;99.00
51615;DHT22;37695;52.960;6.188;2023-03-14T14:13:24;8.00;98.80
51615;DHT22;37695;52.960;6.188;2023-03-14T14:15:52;8.30;98.80
51615;DHT22;37695;52.960;6.188;2023-03-14T14:18:22;8.80;98.20
51615;DHT22;37695;52.960;6.188;2023-03-14T14:20:50;8.70;97.40
51615;DHT22;37695;52.960;6.188;2023-03-14T14:23:21;8.70;97.80
51615;DHT22;37695;52.960;6.188;2023-03-14T14:25:51;8.40;96.60
51615;DHT22;37695;52.960;6.188;2023-03-14T14:28:30;8.20;96.90
51615;DHT22;37695;52.960;6.188;2023-03-14T14:31:22;8.20;96.80
51615;DHT22;37695;52.960;6.188;2023-03-14T14:34:02;8.20;96.90
51615;DHT22;37695;52.960;6.188;2023-03-14T14:36:38;8.20;97.30
51615;DHT22;37695;52.960;6.188;2023-03-14T14:39:18;8.10;96.30
51615;DHT22;37695;52.960;6.188;2023-03-14T14:41:47;8.10;96.20
51615;DHT22;37695;52.960;6.188;2023-03-14T14:44:18;8.20;96.50
51615;DHT22;37695;52.960;6.188;2023-03-14T14:46:44;8.10;96.60
51615;DHT22;37695;52.960;6.188;2023-03-14T14:49:13;8.20;97.10
51615;DHT22;37695;52.960;6.188;2023-03-14T14:51:44;8.10;96.40
51615;DHT22;37695;52.960;6.188;2023-03-14T14:54:17;8.20;96.80
51615;DHT22;37695;52.960;6.188;2023-03-14T14:56:49;8.10;96.60
51615;DHT22;37695;52.960;6.188;2023-03-14T14:59:26;8.00;97.60
51615;DHT22;37695;52.960;6.188;2023-03-14T15:01:56;7.80;96.60
51615;DHT22;37695;52.960;6.188;2023-03-14T15:04:22;7.60;96.90
51615;DHT22;37695;52.960;6.188;2023-03-14T15:06:49;7.40;97.50
51615;DHT22;37695;52.960;6.188;2023-03-14T15:09:15;7.20;97.80
51615;DHT22;37695;52.960;6.188;2023-03-14T15:11:42;7.00;98.00
51615;DHT22;37695;52.960;6.188;2023-03-14T15:14:08;6.90;98.80
51615;DHT22;37695;52.960;6.188;2023-03-14T15:16:34;6.80;99.20
51615;DHT22;37695;52.960;6.188;2023-03-14T15:19:02;6.70;99.80
51615;DHT22;37695;52.960;6.188;2023-03-14T15:21:31;6.70;99.90
51615;DHT22;37695;52.960;6.188;2023-03-14T15:23:57;6.60;99.90
51615;DHT22;37695;52.960;6.188;2023-03-14T15:26:24;6.80;99.90
51615;DHT22;37695;52.960;6.188;2023-03-14T15:28:51;6.90;99.90
51615;DHT22;37695;52.960;6.188;2023-03-14T15:31:19;8.10;99.90
51615;DHT22;37695;52.960;6.188;2023-03-14T15:33:46;7.10;99.90
51615;DHT22;37695;52.960;6.188;2023-03-14T15:36:25;7.20;99.80
51615;DHT22;37695;52.960;6.188;2023-03-14T15:38:55;7.40;99.90
51615;DHT22;37695;52.960;6.188;2023-03-14T15:41:21;7.50;99.90
51615;DHT22;37695;52.960;6.188;2023-03-14T15:43:47;7.60;99.90
51615;DHT22;37695;52.960;6.188;2023-03-14T15:46:14;7.80;99.90
51615;DHT22;37695;52.960;6.188;2023-03-14T15:48:40;7.70;99.60
51615;DHT22;37695;52.960;6.188;2023-03-14T15:51:06;7.60;99.50
51615;DHT22;37695;52.960;6.188;2023-03-14T15:53:32;7.40;98.50
51615;DHT22;37695;52.960;6.188;2023-03-14T15:55:58;7.30;99.30
51615;DHT22;37695;52.960;6.188;2023-03-14T15:58:24;7.00;98.70
51615;DHT22;37695;52.960;6.188;2023-03-14T16:00:50;6.60;99.90
51615;DHT22;37695;52.960;6.188;2023-03-14T16:03:15;6.20;99.90
51615;DHT22;37695;52.960;6.188;2023-03-14T16:05:41;5.80;99.90
51615;DHT22;37695;52.960;6.188;2023-03-14T16:08:07;5.60;99.90
51615;DHT22;37695;52.960;6.188;2023-03-14T16:10:33;5.30;99.90
51615;DHT22;37695;52.960;6.188;2023-03-14T16:12:58;5.10;99.90
51615;DHT22;37695;52.960;6.188;2023-03-14T16:15:24;5.10;99.90
51615;DHT22;37695;52.960;6.188;2023-03-14T16:17:54;5.20;99.90
51615;DHT22;37695;52.960;6.188;2023-03-14T16:20:20;5.20;99.90
51615;DHT22;37695;52.960;6.188;2023-03-14T16:22:46;5.30;99.90
51615;DHT22;37695;52.960;6.188;2023-03-14T16:25:11;5.50;99.90
51615;DHT22;37695;52.960;6.188;2023-03-14T16:27:37;6.00;99.90
51615;DHT22;37695;52.960;6.188;2023-03-14T16:30:03;5.80;99.90
51615;DHT22;37695;52.960;6.188;2023-03-14T16:32:29;6.10;99.90
51615;DHT22;37695;52.960;6.188;2023-03-14T16:34:54;6.30;99.90
51615;DHT22;37695;52.960;6.188;2023-03-14T16:37:21;6.50;99.90
51615;DHT22;37695;52.960;6.188;2023-03-14T16:39:47;6.70;99.90
51615;DHT22;37695;52.960;6.188;2023-03-14T16:42:16;6.80;99.90
51615;DHT22;37695;52.960;6.188;2023-03-14T16:44:41;6.80;99.90
51615;DHT22;37695;52.960;6.188;2023-03-14T16:47:07;6.80;99.90